Time;durP1;ratioP1;P1;durP2;ratioP2;P2;SDS_P1;SDS_P2;PMS_P1;PMS_P2;Temp;Humidity;BMP_temperature;BMP_pressure;BME280_temperature;BME280_humidity;BME280_pressure;Samples;Min_cycle;Max_cycle;Signal;HPM_P1;HPM_P2
2020/12/24 00:02:24;;;;;;;6.25;4.88;;;10.10;99.90;;;;;;8299282;28;20038;-67
2020/12/24 00:06:24;;;;;;;4.63;4.13;;;10.20;99.90;;;;;;8299039;28;20117;-67
2020/12/24 00:10:25;;;;;;;4.65;3.63;;;10.10;99.90;;;;;;8298060;28;20483;-67
2020/12/24 00:14:25;;;;;;;2.72;2.20;;;10.10;99.90;;;;;;8298081;28;20028;-67
2020/12/24 00:18:26;;;;;;;2.85;2.10;;;10.00;99.90;;;;;;8298967;28;20088;-67
2020/12/24 00:22:27;;;;;;;2.20;1.45;;;10.00;99.90;;;;;;8297887;28;20032;-67
2020/12/24 00:26:27;;;;;;;3.08;1.30;;;9.90;99.90;;;;;;8297742;28;20434;-67
2020/12/24 00:30:28;;;;;;;2.83;1.25;;;9.80;99.90;;;;;;8298630;28;20113;-68
2020/12/24 00:34:28;;;;;;;1.42;1.20;;;9.70;99.90;;;;;;8298866;28;20491;-67
2020/12/24 00:38:29;;;;;;;1.25;1.15;;;9.70;99.90;;;;;;8297641;28;20037;-67
2020/12/24 00:42:29;;;;;;;1.00;0.90;;;9.60;99.90;;;;;;8298161;28;20026;-67
2020/12/24 00:46:30;;;;;;;3.55;1.05;;;9.60;99.90;;;;;;8298298;28;20053;-67
2020/12/24 00:50:30;;;;;;;1.70;1.20;;;9.60;99.90;;;;;;8298046;28;20042;-67
2020/12/24 00:54:31;;;;;;;3.15;1.20;;;9.60;99.90;;;;;;8298214;28;20491;-67
2020/12/24 00:58:32;;;;;;;1.60;1.08;;;9.60;99.90;;;;;;8297872;28;20395;-67
2020/12/24 01:02:33;;;;;;;2.00;1.38;;;9.60;99.90;;;;;;8312965;28;20407;-68
2020/12/24 01:06:33;;;;;;;1.52;1.17;;;9.70;99.90;;;;;;8296250;28;20550;-68
2020/12/24 01:10:34;;;;;;;1.05;0.93;;;9.60;99.90;;;;;;8297304;28;20037;-67
2020/12/24 01:14:34;;;;;;;1.70;1.33;;;9.70;99.90;;;;;;8297471;28;20495;-67
2020/12/24 01:18:35;;;;;;;2.22;2.03;;;9.60;99.90;;;;;;8296253;28;20042;-67
2020/12/24 01:22:35;;;;;;;3.05;2.28;;;9.80;99.90;;;;;;8297276;28;20034;-67
2020/12/24 01:26:36;;;;;;;3.00;2.20;;;9.70;99.90;;;;;;8296220;28;20056;-67
2020/12/24 01:30:36;;;;;;;2.63;1.60;;;9.60;99.90;;;;;;8312116;28;20021;-68
2020/12/24 01:34:37;;;;;;;2.65;2.08;;;9.60;99.90;;;;;;8297027;28;20033;-67
2020/12/24 01:38:41;;;;;;;2.00;1.77;;;9.50;99.90;;;;;;8296276;28;20029;-68
2020/12/24 01:42:42;;;;;;;1.90;1.17;;;9.40;99.90;;;;;;8296639;28;20275;-67
2020/12/24 01:46:42;;;;;;;1.85;1.35;;;9.40;99.90;;;;;;8296613;28;20037;-68
2020/12/24 01:50:43;;;;;;;1.60;1.10;;;9.30;99.90;;;;;;8293811;28;20084;-68
2020/12/24 01:54:43;;;;;;;1.02;0.82;;;9.30;99.90;;;;;;8296326;28;20053;-67
2020/12/24 01:58:44;;;;;;;1.35;1.05;;;9.20;99.90;;;;;;8295910;28;20042;-67
2020/12/24 02:02:45;;;;;;;0.65;0.60;;;9.20;99.90;;;;;;8310916;28;20030;-67
2020/12/24 02:06:49;;;;;;;1.00;0.60;;;9.10;99.90;;;;;;8296026;28;20022;-68
2020/12/24 02:10:50;;;;;;;0.60;0.60;;;9.00;99.90;;;;;;8295727;28;20549;-68
2020/12/24 02:14:51;;;;;;;0.80;0.80;;;9.00;99.90;;;;;;8295812;28;20383;-68
2020/12/24 02:18:52;;;;;;;0.50;0.50;;;8.90;99.90;;;;;;8294990;28;20064;-68
2020/12/24 02:22:52;;;;;;;0.68;0.47;;;8.90;99.90;;;;;;8295527;28;20018;-67
2020/12/24 02:26:53;;;;;;;0.30;0.30;;;8.90;99.90;;;;;;8295428;28;20030;-67
2020/12/24 02:30:53;;;;;;;0.40;0.40;;;8.80;99.90;;;;;;8293840;28;20503;-68
2020/12/24 02:34:55;;;;;;;1.00;0.50;;;8.80;99.90;;;;;;8293799;28;20025;-67
2020/12/24 02:38:56;;;;;;;1.30;0.60;;;8.70;99.90;;;;;;8294612;28;20029;-67
2020/12/24 02:42:56;;;;;;;0.98;0.63;;;8.70;99.90;;;;;;8294920;28;20030;-67
2020/12/24 02:46:57;;;;;;;0.60;0.50;;;8.60;99.90;;;;;;8294789;28;20076;-67
2020/12/24 02:50:58;;;;;;;1.40;0.40;;;8.60;99.90;;;;;;8294378;28;20037;-67
2020/12/24 02:54:59;;;;;;;0.90;0.50;;;8.50;99.90;;;;;;8294679;28;20036;-67
2020/12/24 02:59:00;;;;;;;0.85;0.38;;;8.50;99.90;;;;;;8292358;28;20029;-67
2020/12/24 03:03:00;;;;;;;0.47;0.47;;;8.50;99.90;;;;;;8294025;28;20549;-67
2020/12/24 03:07:00;;;;;;;1.52;0.47;;;8.40;99.90;;;;;;8294400;28;20018;-68
2020/12/24 03:11:01;;;;;;;0.32;0.30;;;8.30;99.90;;;;;;8294377;28;20109;-68
2020/12/24 03:15:02;;;;;;;0.30;0.22;;;8.20;99.90;;;;;;8294320;28;20058;-68
2020/12/24 03:19:02;;;;;;;0.20;0.20;;;8.10;99.90;;;;;;8293774;28;20029;-68
2020/12/24 03:23:03;;;;;;;1.00;0.20;;;7.80;99.90;;;;;;8294178;28;20554;-67
2020/12/24 03:27:03;;;;;;;0.10;0.10;;;7.60;99.90;;;;;;8294059;28;20083;-68
2020/12/24 03:31:04;;;;;;;0.10;0.10;;;7.40;99.90;;;;;;8293774;28;20054;-68
2020/12/24 03:35:05;;;;;;;1.00;0.32;;;7.20;99.90;;;;;;8294120;28;20177;-69
2020/12/24 03:39:06;;;;;;;0.50;0.20;;;7.20;99.90;;;;;;8293586;28;20040;-69
2020/12/24 03:43:06;;;;;;;1.35;0.38;;;7.10;99.90;;;;;;8293726;28;20030;-69
2020/12/24 03:47:07;;;;;;;0.90;0.30;;;7.00;99.90;;;;;;8293801;28;20026;-69
2020/12/24 03:51:08;;;;;;;0.38;0.30;;;6.90;99.90;;;;;;8308712;28;20057;-69
2020/12/24 03:55:09;;;;;;;1.70;0.20;;;6.80;99.90;;;;;;8292383;28;20065;-69
2020/12/24 03:59:09;;;;;;;0.70;0.20;;;6.80;99.90;;;;;;8293313;28;20546;-69
2020/12/24 04:03:10;;;;;;;1.83;0.38;;;6.70;99.90;;;;;;8292602;28;20097;-69
2020/12/24 04:07:10;;;;;;;0.20;0.20;;;6.60;99.90;;;;;;8285234;28;20053;-69
2020/12/24 04:11:11;;;;;;;0.52;0.30;;;6.70;99.90;;;;;;8292890;28;20029;-70
2020/12/24 04:15:11;;;;;;;0.30;0.28;;;6.60;99.90;;;;;;8298420;28;20559;-69
2020/12/24 04:19:12;;;;;;;1.02;0.30;;;6.60;99.90;;;;;;8297892;28;20037;-69
2020/12/24 04:23:12;;;;;;;1.23;0.20;;;6.60;99.90;;;;;;8299251;28;20484;-71
2020/12/24 04:27:13;;;;;;;0.20;0.10;;;6.70;99.90;;;;;;8291262;28;20025;-69
2020/12/24 04:31:14;;;;;;;0.28;0.20;;;6.60;99.90;;;;;;8279453;28;20026;-69
2020/12/24 04:35:14;;;;;;;0.10;0.10;;;6.50;99.90;;;;;;8265941;28;20396;-69
2020/12/24 04:39:15;;;;;;;0.10;0.10;;;6.50;99.90;;;;;;8265922;28;20109;-69
2020/12/24 04:43:16;;;;;;;1.02;0.22;;;6.40;99.90;;;;;;8266245;28;20030;-69
2020/12/24 04:47:18;;;;;;;0.73;0.30;;;6.50;99.90;;;;;;8265701;28;20042;-70
2020/12/24 04:51:21;;;;;;;0.20;0.20;;;6.50;99.90;;;;;;8298061;28;20080;-69
2020/12/24 04:55:22;;;;;;;0.20;0.10;;;6.50;99.90;;;;;;8297076;28;20026;-69
2020/12/24 04:59:23;;;;;;;0.32;0.22;;;6.50;99.90;;;;;;8296739;28;20030;-69
2020/12/24 05:03:23;;;;;;;0.20;0.20;;;6.50;99.90;;;;;;8298056;28;20026;-69
2020/12/24 05:07:24;;;;;;;0.90;0.20;;;6.40;99.90;;;;;;8297800;28;20025;-69
2020/12/24 05:11:33;;;;;;;0.10;0.10;;;6.30;99.90;;;;;;8297671;28;20025;-69
2020/12/24 05:15:34;;;;;;;0.30;0.20;;;6.30;99.90;;;;;;8297713;28;20499;-69
2020/12/24 05:19:36;;;;;;;4.05;0.65;;;6.10;99.90;;;;;;8296952;28;20033;-68
2020/12/24 05:23:37;;;;;;;0.60;0.40;;;6.00;99.90;;;;;;8295954;28;20025;-69
2020/12/24 05:27:38;;;;;;;0.32;0.10;;;5.90;99.90;;;;;;8297235;28;20493;-68
2020/12/24 05:31:39;;;;;;;1.88;0.20;;;5.80;99.90;;;;;;8296849;28;20383;-68
2020/12/24 05:35:39;;;;;;;0.17;0.17;;;5.80;99.90;;;;;;8296769;28;20084;-68
2020/12/24 05:39:42;;;;;;;3.15;0.38;;;5.80;99.90;;;;;;8296677;28;20030;-68
2020/12/24 05:43:54;;;;;;;0.15;0.15;;;5.80;99.90;;;;;;8295453;28;20026;-69
2020/12/24 05:48:12;;;;;;;0.80;0.17;;;5.80;99.90;;;;;;8296497;28;20387;-68
2020/12/24 05:52:15;;;;;;;0.90;0.30;;;5.70;99.90;;;;;;8296320;28;20049;-70
2020/12/24 05:56:20;;;;;;;0.90;0.38;;;5.70;99.90;;;;;;8296547;28;20025;-70
2020/12/24 06:00:21;;;;;;;2.75;0.55;;;5.70;99.90;;;;;;8296038;28;20037;-70
2020/12/24 06:04:49;;;;;;;0.47;0.20;;;5.80;99.90;;;;;;8294622;28;20026;-70
2020/12/24 06:08:53;;;;;;;1.27;0.20;;;5.70;99.90;;;;;;8275902;28;20381;-70
2020/12/24 06:13:06;;;;;;;0.22;0.20;;;5.70;99.90;;;;;;8276630;28;20105;-69
2020/12/24 06:17:07;;;;;;;1.10;0.20;;;5.80;99.90;;;;;;8277212;28;20081;-70
2020/12/24 06:21:16;;;;;;;1.65;0.40;;;5.80;99.90;;;;;;8294464;28;20030;-70
2020/12/24 06:25:17;;;;;;;0.20;0.20;;;5.70;99.90;;;;;;8292963;28;20105;-70
2020/12/24 06:29:21;;;;;;;0.43;0.10;;;5.70;99.90;;;;;;8293162;28;20022;-70
2020/12/24 06:33:27;;;;;;;0.17;0.17;;;5.80;99.90;;;;;;8294464;28;20117;-70
2020/12/24 06:37:27;;;;;;;0.32;0.20;;;5.90;99.90;;;;;;8293754;28;20100;-70
2020/12/24 06:41:38;;;;;;;2.38;0.13;;;6.00;99.90;;;;;;8292188;28;20025;-69
2020/12/24 06:45:40;;;;;;;0.10;0.10;;;6.00;99.90;;;;;;8306330;28;20034;-70
2020/12/24 06:49:40;;;;;;;1.00;0.40;;;6.10;99.90;;;;;;8291372;28;20037;-70
2020/12/24 06:53:41;;;;;;;0.45;0.20;;;6.10;99.90;;;;;;8291957;28;20045;-68
2020/12/24 06:57:43;;;;;;;1.35;0.20;;;6.30;99.90;;;;;;8267061;28;20030;-68
2020/12/24 07:01:59;;;;;;;0.50;0.30;;;6.30;99.90;;;;;;8261868;28;20023;-68
2020/12/24 07:06:00;;;;;;;0.73;0.40;;;6.30;99.90;;;;;;8263768;28;20030;-68
2020/12/24 07:10:00;;;;;;;0.20;0.20;;;6.30;99.90;;;;;;8276017;28;20060;-68
2020/12/24 07:14:01;;;;;;;1.95;0.30;;;6.30;99.90;;;;;;8274376;28;20023;-67
2020/12/24 07:18:10;;;;;;;1.23;0.40;;;6.20;99.90;;;;;;8284319;28;20029;-67
2020/12/24 07:22:14;;;;;;;0.32;0.25;;;6.10;99.90;;;;;;8288039;28;20046;-68
2020/12/24 07:26:15;;;;;;;0.20;0.20;;;6.20;99.90;;;;;;8294050;28;20032;-68
2020/12/24 07:30:18;;;;;;;1.08;0.20;;;6.10;99.90;;;;;;8276557;28;20026;-68
2020/12/24 07:34:23;;;;;;;0.90;0.40;;;6.00;99.90;;;;;;8277087;28;20113;-68
2020/12/24 07:38:29;;;;;;;0.47;0.30;;;6.00;99.90;;;;;;8277158;28;20407;-68
2020/12/24 07:42:30;;;;;;;0.90;0.25;;;5.90;99.90;;;;;;8279796;28;20043;-68
2020/12/24 07:46:30;;;;;;;0.75;0.45;;;5.90;99.90;;;;;;8279127;28;20049;-68
2020/12/24 07:50:32;;;;;;;1.20;0.30;;;6.00;99.90;;;;;;8304535;28;20033;-68
2020/12/24 07:54:32;;;;;;;1.27;0.25;;;6.00;99.90;;;;;;8283695;28;20022;-68
2020/12/24 07:58:34;;;;;;;1.38;0.50;;;6.00;99.90;;;;;;8313891;28;20052;-68
2020/12/24 08:02:35;;;;;;;0.25;0.20;;;6.00;99.90;;;;;;8285029;28;20092;-68
2020/12/24 08:06:36;;;;;;;0.30;0.30;;;6.10;99.90;;;;;;8285443;28;20088;-68
2020/12/24 08:10:38;;;;;;;1.15;0.20;;;6.10;99.90;;;;;;8293583;28;20034;-68
2020/12/24 08:14:38;;;;;;;2.90;0.57;;;6.10;99.90;;;;;;8276104;28;20026;-68
2020/12/24 08:18:45;;;;;;;0.93;0.45;;;6.10;99.90;;;;;;8283197;28;20049;-68
2020/12/24 08:23:00;;;;;;;0.57;0.10;;;6.20;99.90;;;;;;8309855;28;20558;-68
2020/12/24 08:27:02;;;;;;;2.67;0.28;;;6.20;99.90;;;;;;8286877;28;20487;-68
2020/12/24 08:31:08;;;;;;;0.30;0.20;;;6.20;99.90;;;;;;8267876;28;20373;-68
2020/12/24 08:35:14;;;;;;;1.55;0.32;;;6.30;99.90;;;;;;8268006;28;20026;-68
2020/12/24 08:39:17;;;;;;;3.38;0.43;;;6.20;99.90;;;;;;8287721;28;20042;-69
2020/12/24 08:43:18;;;;;;;0.38;0.35;;;6.30;99.90;;;;;;8277623;28;20104;-68
2020/12/24 08:47:18;;;;;;;0.90;0.30;;;6.50;99.90;;;;;;8296168;28;20033;-68
2020/12/24 08:51:20;;;;;;;0.80;0.38;;;6.80;99.90;;;;;;8292985;28;20034;-66
2020/12/24 08:55:27;;;;;;;1.05;0.38;;;7.00;99.90;;;;;;8272456;28;20038;-67
2020/12/24 08:59:27;;;;;;;1.52;0.30;;;7.10;99.90;;;;;;8281350;28;20561;-66
2020/12/24 09:03:28;;;;;;;0.90;0.38;;;7.00;99.90;;;;;;8290879;28;20062;-67
2020/12/24 09:07:31;;;;;;;1.55;0.43;;;6.90;99.90;;;;;;8305453;28;20025;-67
2020/12/24 09:11:32;;;;;;;0.35;0.20;;;7.00;99.90;;;;;;8279702;28;20029;-67
2020/12/24 09:15:35;;;;;;;0.30;0.30;;;7.10;99.90;;;;;;8284190;28;20033;-67
2020/12/24 09:19:35;;;;;;;2.05;0.47;;;7.30;99.90;;;;;;8311353;28;20038;-67
2020/12/24 09:23:36;;;;;;;0.77;0.40;;;7.70;99.90;;;;;;8281193;28;20089;-67
2020/12/24 09:27:43;;;;;;;0.90;0.35;;;7.80;99.90;;;;;;8263445;28;20026;-68
2020/12/24 09:32:04;;;;;;;1.25;0.30;;;8.10;99.90;;;;;;8263474;28;20089;-68
2020/12/24 09:36:04;;;;;;;0.25;0.20;;;8.20;99.90;;;;;;8285510;28;20467;-69
2020/12/24 09:40:05;;;;;;;0.20;0.20;;;8.30;99.90;;;;;;8291562;28;20121;-68
2020/12/24 09:44:06;;;;;;;0.80;0.43;;;8.30;99.90;;;;;;8289228;28;20064;-68
2020/12/24 09:48:07;;;;;;;2.05;0.40;;;8.50;99.90;;;;;;8289151;28;20030;-68
2020/12/24 09:52:08;;;;;;;0.40;0.30;;;8.60;99.90;;;;;;8284323;28;20030;-69
2020/12/24 09:56:08;;;;;;;0.88;0.30;;;8.70;99.90;;;;;;8291353;28;20398;-70
2020/12/24 10:00:10;;;;;;;0.55;0.22;;;8.90;99.90;;;;;;8292269;28;20077;-71
2020/12/24 10:04:11;;;;;;;1.13;0.40;;;9.00;99.90;;;;;;8291446;28;20021;-68
2020/12/24 10:08:12;;;;;;;0.40;0.40;;;8.80;99.90;;;;;;8292454;28;20104;-69
2020/12/24 10:12:12;;;;;;;1.75;0.57;;;8.60;99.90;;;;;;8289040;28;20018;-68
2020/12/24 10:16:13;;;;;;;1.75;0.40;;;8.80;99.90;;;;;;8293893;28;20076;-71
2020/12/24 10:20:13;;;;;;;1.27;0.30;;;9.10;99.90;;;;;;8287683;28;20029;-72
2020/12/24 10:24:15;;;;;;;0.60;0.40;;;9.00;99.90;;;;;;8279468;28;20040;-68
2020/12/24 10:28:16;;;;;;;1.30;0.40;;;8.70;99.90;;;;;;8291755;28;20022;-67
2020/12/24 10:32:16;;;;;;;1.08;0.52;;;8.30;99.90;;;;;;8290923;28;20048;-68
2020/12/24 10:36:24;;;;;;;1.08;0.30;;;8.20;99.90;;;;;;8291334;28;20515;-68
2020/12/24 10:40:25;;;;;;;0.45;0.32;;;8.10;99.90;;;;;;8293071;28;20030;-68
2020/12/24 10:44:25;;;;;;;0.90;0.50;;;8.00;99.90;;;;;;8290602;28;20494;-68
2020/12/24 10:48:26;;;;;;;0.45;0.25;;;8.20;99.90;;;;;;8306529;28;20037;-68
2020/12/24 10:52:26;;;;;;;1.60;0.60;;;8.20;99.90;;;;;;8307036;28;20030;-68
2020/12/24 10:56:27;;;;;;;2.28;0.60;;;8.30;99.90;;;;;;8290364;28;20069;-68
2020/12/24 11:00:28;;;;;;;1.23;0.60;;;8.40;99.90;;;;;;8291410;28;20041;-69
2020/12/24 11:04:29;;;;;;;3.17;0.50;;;8.60;99.90;;;;;;8293144;28;20034;-68
2020/12/24 11:08:30;;;;;;;2.65;0.75;;;8.50;99.90;;;;;;8293588;28;20022;-68
2020/12/24 11:12:31;;;;;;;0.88;0.30;;;8.50;99.90;;;;;;8292879;28;20030;-68
2020/12/24 11:16:32;;;;;;;1.95;0.52;;;8.40;99.90;;;;;;8287152;28;20244;-67
2020/12/24 11:20:33;;;;;;;1.98;0.50;;;8.40;99.90;;;;;;8291078;28;20026;-67
2020/12/24 11:24:34;;;;;;;2.15;0.88;;;8.20;99.90;;;;;;8291664;28;20497;-68
2020/12/24 11:28:34;;;;;;;0.40;0.30;;;8.30;99.90;;;;;;8290575;28;20032;-68
2020/12/24 11:32:35;;;;;;;1.13;0.47;;;8.20;99.90;;;;;;8291839;28;20033;-68
2020/12/24 11:36:36;;;;;;;0.52;0.35;;;8.10;99.90;;;;;;8285550;28;20701;-68
2020/12/24 11:40:38;;;;;;;1.70;0.40;;;8.10;99.90;;;;;;8290862;28;20036;-68
2020/12/24 11:44:38;;;;;;;1.20;0.30;;;8.20;99.90;;;;;;8288733;28;20105;-67
2020/12/24 11:48:39;;;;;;;2.75;0.45;;;8.10;99.90;;;;;;8287650;28;20018;-67
2020/12/24 11:52:40;;;;;;;0.45;0.25;;;8.10;99.90;;;;;;8290323;28;20038;-67
2020/12/24 11:56:42;;;;;;;0.30;0.30;;;8.10;99.90;;;;;;8286804;28;20081;-69
2020/12/24 12:00:42;;;;;;;5.97;1.80;;;8.10;99.90;;;;;;8279367;28;20034;-68
2020/12/24 12:04:43;;;;;;;4.00;1.50;;;8.20;99.90;;;;;;8279529;28;20723;-68
2020/12/24 12:08:45;;;;;;;2.42;1.38;;;8.40;99.90;;;;;;8284933;28;20030;-68
2020/12/24 12:12:46;;;;;;;3.88;1.50;;;8.50;99.90;;;;;;8290112;28;20034;-68
2020/12/24 12:16:47;;;;;;;2.50;1.10;;;8.40;99.90;;;;;;8290605;28;20042;-68
2020/12/24 12:20:48;;;;;;;0.70;0.20;;;8.30;99.90;;;;;;8290971;28;20577;-69
2020/12/24 12:24:49;;;;;;;1.65;1.00;;;8.30;99.90;;;;;;8290386;28;20022;-68
2020/12/24 12:28:49;;;;;;;1.45;0.40;;;8.30;99.90;;;;;;8292229;28;20022;-67
2020/12/24 12:32:50;;;;;;;0.40;0.30;;;8.30;99.90;;;;;;8289765;28;20030;-68
2020/12/24 12:36:50;;;;;;;3.00;0.30;;;8.40;99.90;;;;;;8296215;28;20488;-68
2020/12/24 12:40:51;;;;;;;1.58;0.47;;;8.40;99.90;;;;;;8297314;28;20450;-66
2020/12/24 12:44:51;;;;;;;0.60;0.30;;;8.50;99.90;;;;;;8281454;28;20033;-66
2020/12/24 12:48:53;;;;;;;2.90;0.40;;;8.50;99.90;;;;;;8285995;28;20034;-67
2020/12/24 12:52:53;;;;;;;0.93;0.28;;;8.20;99.90;;;;;;8284305;28;20104;-67
2020/12/24 12:56:54;;;;;;;1.27;0.30;;;8.00;99.90;;;;;;8279564;28;20033;-67
2020/12/24 13:00:55;;;;;;;0.25;0.20;;;8.00;99.90;;;;;;8263989;28;20037;-68
2020/12/24 13:04:55;;;;;;;0.60;0.40;;;7.80;99.90;;;;;;8285755;28;20018;-67
2020/12/24 13:08:56;;;;;;;5.93;3.08;;;8.00;99.90;;;;;;8274453;28;20028;-67
2020/12/24 13:12:56;;;;;;;0.40;0.40;;;7.90;99.90;;;;;;8291667;28;20030;-67
2020/12/24 13:16:57;;;;;;;0.38;0.30;;;8.00;99.90;;;;;;8305634;28;20116;-68
2020/12/24 13:20:59;;;;;;;2.00;0.73;;;7.80;99.90;;;;;;8292325;28;20109;-67
2020/12/24 13:25:00;;;;;;;0.55;0.20;;;7.70;99.90;;;;;;8265572;28;20031;-70
2020/12/24 13:29:01;;;;;;;0.80;0.35;;;7.60;99.90;;;;;;8270346;28;20109;-70
2020/12/24 13:33:02;;;;;;;1.75;0.50;;;7.50;99.90;;;;;;8278654;28;20030;-67
2020/12/24 13:37:03;;;;;;;3.08;0.70;;;7.50;99.90;;;;;;8277720;28;20415;-68
2020/12/24 13:41:03;;;;;;;0.70;0.30;;;7.60;99.90;;;;;;8287561;28;20101;-66
2020/12/24 13:45:06;;;;;;;3.30;0.47;;;7.60;99.90;;;;;;8284282;28;20145;-67
2020/12/24 13:49:06;;;;;;;1.52;0.60;;;7.60;99.90;;;;;;8274731;28;20040;-67
2020/12/24 13:53:07;;;;;;;0.68;0.50;;;7.60;99.90;;;;;;8282905;28;20022;-66
2020/12/24 13:57:09;;;;;;;21.63;9.80;;;7.70;99.90;;;;;;8274293;28;20049;-67
2020/12/24 14:01:14;;;;;;;3.17;1.25;;;7.80;99.90;;;;;;8266355;28;20040;-67
2020/12/24 14:05:14;;;;;;;4.43;2.13;;;7.80;99.90;;;;;;8273530;28;20538;-67
2020/12/24 14:09:15;;;;;;;4.75;2.90;;;7.80;99.90;;;;;;8289398;28;20030;-67
2020/12/24 14:13:16;;;;;;;3.92;2.28;;;7.80;99.90;;;;;;8269575;28;20035;-67
2020/12/24 14:17:16;;;;;;;1.15;0.50;;;7.80;99.90;;;;;;8294582;28;20407;-66
2020/12/24 14:21:20;;;;;;;1.02;0.50;;;7.80;99.90;;;;;;8282719;28;20047;-66
2020/12/24 14:25:21;;;;;;;2.08;1.55;;;7.70;99.90;;;;;;8280182;28;20049;-67
2020/12/24 14:29:22;;;;;;;2.25;1.10;;;7.60;99.90;;;;;;8281125;28;20026;-67
2020/12/24 14:33:22;;;;;;;3.17;1.63;;;7.60;99.90;;;;;;8286609;28;20030;-67
2020/12/24 14:37:23;;;;;;;2.80;0.85;;;7.60;99.90;;;;;;8264931;28;20484;-66
2020/12/24 14:41:24;;;;;;;52.30;25.13;;;7.60;99.90;;;;;;8255012;28;20038;-67
2020/12/24 14:45:25;;;;;;;10.32;4.80;;;7.50;99.90;;;;;;8264670;28;20022;-67
2020/12/24 14:49:25;;;;;;;1.35;1.13;;;7.50;99.90;;;;;;8284424;28;20387;-67
2020/12/24 14:53:26;;;;;;;4.65;2.83;;;7.40;99.90;;;;;;8281322;28;20030;-67
2020/12/24 14:57:27;;;;;;;1.60;1.10;;;7.30;99.90;;;;;;8263239;28;20568;-67
2020/12/24 15:01:27;;;;;;;0.77;0.57;;;7.30;99.90;;;;;;8261300;28;20023;-67
2020/12/24 15:05:28;;;;;;;1.08;0.55;;;7.30;99.90;;;;;;8261501;28;20049;-67
2020/12/24 15:09:28;;;;;;;3.20;1.10;;;7.20;99.90;;;;;;8269967;28;20025;-67
2020/12/24 15:13:29;;;;;;;2.25;1.00;;;7.00;99.90;;;;;;8291098;28;20036;-66
2020/12/24 15:17:29;;;;;;;6.13;3.33;;;6.90;99.90;;;;;;8287789;28;20080;-66
2020/12/24 15:21:30;;;;;;;1.02;0.82;;;6.80;99.90;;;;;;8292877;28;20030;-66
2020/12/24 15:25:31;;;;;;;1.30;0.70;;;6.70;99.90;;;;;;8288887;28;20072;-66
2020/12/24 15:29:31;;;;;;;1.52;0.70;;;6.50;99.90;;;;;;8269423;28;20404;-67
2020/12/24 15:33:32;;;;;;;1.75;0.95;;;6.40;99.90;;;;;;8266234;28;20037;-67
2020/12/24 15:37:32;;;;;;;1.40;0.40;;;6.40;99.90;;;;;;8264423;28;20031;-66
2020/12/24 15:41:33;;;;;;;2.47;0.80;;;6.30;99.90;;;;;;8259959;28;20033;-67
2020/12/24 15:45:34;;;;;;;2.88;0.70;;;6.20;99.90;;;;;;8282117;28;20484;-67
2020/12/24 15:49:35;;;;;;;6.70;5.57;;;6.20;99.90;;;;;;8287385;28;20084;-67
2020/12/24 15:53:38;;;;;;;7.40;3.88;;;6.20;99.90;;;;;;8290720;28;20030;-67
2020/12/24 15:57:39;;;;;;;9.65;7.00;;;6.20;99.90;;;;;;8289808;28;20022;-66
2020/12/24 16:01:41;;;;;;;2.67;1.70;;;6.20;99.90;;;;;;8285109;28;20399;-66
2020/12/24 16:05:41;;;;;;;3.35;2.72;;;6.20;99.90;;;;;;8266623;28;20033;-67
2020/12/24 16:09:42;;;;;;;2.40;1.20;;;6.10;99.90;;;;;;8265578;28;20482;-67
2020/12/24 16:13:44;;;;;;;10.10;8.35;;;6.20;99.90;;;;;;8267412;28;20022;-66
2020/12/24 16:17:44;;;;;;;3.95;1.88;;;6.20;99.90;;;;;;8271337;28;20037;-67
2020/12/24 16:21:45;;;;;;;6.10;3.90;;;6.20;99.90;;;;;;8299421;28;20133;-67
2020/12/24 16:25:46;;;;;;;4.35;1.05;;;6.10;99.90;;;;;;8299016;28;20041;-67
2020/12/24 16:29:46;;;;;;;2.88;1.77;;;6.10;99.90;;;;;;8299033;28;20060;-67
2020/12/24 16:33:47;;;;;;;4.05;2.92;;;6.00;99.90;;;;;;8299187;28;20022;-67
2020/12/24 16:37:49;;;;;;;3.20;2.20;;;6.00;99.90;;;;;;8298916;28;20487;-67
2020/12/24 16:41:57;;;;;;;2.47;1.42;;;6.10;99.90;;;;;;8298643;28;20029;-67
2020/12/24 16:45:57;;;;;;;3.47;1.70;;;6.10;99.90;;;;;;8297768;28;20053;-67
2020/12/24 16:49:58;;;;;;;1.90;1.10;;;6.10;99.90;;;;;;8298367;28;20034;-67
2020/12/24 16:53:59;;;;;;;2.55;1.58;;;6.00;99.90;;;;;;8299041;28;20026;-66
2020/12/24 16:57:59;;;;;;;3.92;2.05;;;6.00;99.90;;;;;;8297332;28;20026;-67
2020/12/24 17:02:00;;;;;;;3.88;1.33;;;6.00;99.90;;;;;;8313436;28;20022;-67
2020/12/24 17:06:01;;;;;;;17.60;10.93;;;6.00;99.90;;;;;;8298405;28;20033;-67
2020/12/24 17:10:02;;;;;;;5.30;2.95;;;6.00;99.90;;;;;;8297791;28;20088;-67
2020/12/24 17:14:03;;;;;;;2.25;1.52;;;6.10;99.90;;;;;;8296695;28;20097;-66
2020/12/24 17:18:03;;;;;;;5.65;1.60;;;6.20;99.90;;;;;;8292863;28;20033;-67
2020/12/24 17:22:04;;;;;;;2.33;1.33;;;6.00;99.90;;;;;;8307373;28;20693;-67
2020/12/24 17:26:04;;;;;;;0.90;0.50;;;6.00;99.90;;;;;;8282856;28;20092;-68
2020/12/24 17:30:05;;;;;;;2.55;1.10;;;6.00;99.90;;;;;;8279058;28;20022;-67
2020/12/24 17:34:05;;;;;;;3.17;1.30;;;5.90;99.90;;;;;;8276352;28;20033;-67
2020/12/24 17:38:06;;;;;;;2.20;0.93;;;5.90;99.90;;;;;;8266088;28;20518;-67
2020/12/24 17:42:06;;;;;;;2.03;1.40;;;5.80;99.90;;;;;;8274241;28;20084;-68
2020/12/24 17:46:11;;;;;;;2.83;1.10;;;5.80;99.90;;;;;;8267649;28;20103;-68
2020/12/24 17:50:11;;;;;;;0.75;0.65;;;5.80;99.90;;;;;;8289912;28;20030;-66
2020/12/24 17:54:12;;;;;;;3.55;1.20;;;5.70;99.90;;;;;;8290524;28;20491;-68
2020/12/24 17:58:13;;;;;;;3.70;1.80;;;5.70;99.90;;;;;;8295082;28;20042;-68
2020/12/24 18:02:14;;;;;;;2.47;1.27;;;5.80;99.90;;;;;;8295044;28;20030;-68
2020/12/24 18:06:16;;;;;;;3.17;0.80;;;5.70;99.90;;;;;;8290832;28;20029;-67
2020/12/24 18:10:16;;;;;;;0.60;0.55;;;5.70;99.90;;;;;;8275562;28;20029;-67
2020/12/24 18:14:17;;;;;;;0.47;0.45;;;5.70;99.90;;;;;;8288878;28;20037;-68
2020/12/24 18:18:18;;;;;;;2.70;0.80;;;5.60;99.90;;;;;;8296849;28;20037;-67
2020/12/24 18:22:18;;;;;;;3.83;0.50;;;5.60;99.90;;;;;;8314704;28;20487;-67
2020/12/24 18:26:20;;;;;;;1.20;0.55;;;5.50;99.90;;;;;;8295371;28;20399;-68
2020/12/24 18:30:21;;;;;;;1.25;0.63;;;5.40;99.90;;;;;;8272227;28;20100;-67
2020/12/24 18:34:22;;;;;;;1.95;0.60;;;5.40;99.90;;;;;;8294191;28;20037;-68
2020/12/24 18:38:22;;;;;;;2.38;0.98;;;5.40;99.90;;;;;;8294119;28;20041;-67
2020/12/24 18:42:23;;;;;;;1.33;0.95;;;5.40;99.90;;;;;;8294852;28;20109;-68
2020/12/24 18:46:23;;;;;;;3.35;1.20;;;5.50;99.90;;;;;;8278423;28;20479;-67
2020/12/24 18:50:24;;;;;;;0.55;0.52;;;5.50;99.90;;;;;;8287054;28;20026;-68
2020/12/24 18:54:25;;;;;;;1.45;0.70;;;5.60;99.90;;;;;;8289749;28;20064;-67
2020/12/24 18:58:25;;;;;;;0.70;0.60;;;5.50;99.90;;;;;;8289859;28;20029;-68
2020/12/24 19:02:26;;;;;;;0.60;0.32;;;5.50;99.90;;;;;;8292754;28;20406;-68
2020/12/24 19:06:27;;;;;;;1.55;0.57;;;5.40;99.90;;;;;;8282334;28;20110;-68
2020/12/24 19:10:28;;;;;;;0.60;0.47;;;5.40;99.90;;;;;;8275946;28;20053;-67
2020/12/24 19:14:29;;;;;;;1.55;0.80;;;5.40;99.90;;;;;;8269898;28;20105;-67
2020/12/24 19:18:29;;;;;;;1.40;0.75;;;5.40;99.90;;;;;;8290071;28;20030;-67
2020/12/24 19:22:32;;;;;;;2.05;1.50;;;5.40;99.90;;;;;;8263238;28;20624;-67
2020/12/24 19:26:33;;;;;;;0.63;0.40;;;5.40;99.90;;;;;;8223972;28;20025;-67
2020/12/24 19:30:33;;;;;;;1.20;0.70;;;5.40;99.90;;;;;;8293665;28;20037;-67
2020/12/24 19:34:34;;;;;;;1.02;0.73;;;5.40;99.90;;;;;;8293243;28;20483;-67
2020/12/24 19:38:34;;;;;;;0.90;0.50;;;5.40;99.90;;;;;;8291661;28;20037;-67
2020/12/24 19:42:35;;;;;;;0.57;0.55;;;5.40;99.90;;;;;;8297278;28;20029;-67
2020/12/24 19:46:35;;;;;;;0.40;0.40;;;5.30;99.90;;;;;;8300899;28;20053;-67
2020/12/24 19:50:36;;;;;;;1.15;0.70;;;5.30;99.90;;;;;;8300836;28;20045;-67
2020/12/24 19:54:41;;;;;;;0.90;0.60;;;5.30;99.90;;;;;;8300945;28;20037;-66
2020/12/24 19:58:42;;;;;;;0.75;0.75;;;5.30;99.90;;;;;;8300201;28;20403;-67
2020/12/24 20:02:43;;;;;;;1.23;0.95;;;5.30;99.90;;;;;;8300498;28;20423;-67
2020/12/24 20:06:44;;;;;;;0.50;0.40;;;5.30;99.90;;;;;;8300542;28;20018;-68
2020/12/24 20:10:44;;;;;;;1.13;0.88;;;5.30;99.90;;;;;;8315223;28;20021;-67
2020/12/24 20:14:45;;;;;;;1.88;0.80;;;5.30;99.90;;;;;;8300873;28;20063;-67
2020/12/24 20:18:45;;;;;;;1.77;1.10;;;5.30;99.90;;;;;;8299622;28;20041;-67
2020/12/24 20:22:46;;;;;;;2.90;1.08;;;5.30;99.90;;;;;;8299985;28;20033;-67
2020/12/24 20:26:46;;;;;;;1.13;0.90;;;5.40;99.90;;;;;;8299719;28;20030;-67
2020/12/24 20:30:47;;;;;;;1.10;0.77;;;5.30;99.90;;;;;;8299346;28;20105;-67
2020/12/24 20:34:48;;;;;;;1.17;1.05;;;5.40;99.90;;;;;;8297986;28;20398;-67
2020/12/24 20:38:49;;;;;;;1.88;1.00;;;5.30;99.90;;;;;;8299323;28;20036;-67
2020/12/24 20:42:49;;;;;;;0.70;0.52;;;5.30;99.90;;;;;;8297961;28;20025;-67
2020/12/24 20:46:50;;;;;;;1.50;0.70;;;5.30;99.90;;;;;;8299274;28;20030;-67
2020/12/24 20:50:50;;;;;;;0.82;0.77;;;5.20;99.90;;;;;;8298907;28;20518;-67
2020/12/24 20:54:51;;;;;;;1.02;0.90;;;5.20;99.90;;;;;;8298160;28;20084;-67
2020/12/24 20:58:52;;;;;;;1.05;0.95;;;5.30;99.90;;;;;;8297150;28;20026;-68
2020/12/24 21:02:52;;;;;;;1.98;0.90;;;5.30;99.90;;;;;;8366028;22;20140;-67
2020/12/24 21:06:53;;;;;;;1.10;0.90;;;5.30;99.90;;;;;;8343684;28;20024;-67
2020/12/24 21:10:54;;;;;;;1.30;0.80;;;5.30;99.90;;;;;;8254199;28;20223;-68
2020/12/24 21:14:54;;;;;;;0.70;0.70;;;5.30;99.90;;;;;;8248882;28;20132;-67